Time;durP1;ratioP1;P1;durP2;ratioP2;P2;SDS_P1;SDS_P2;PMS_P1;PMS_P2;Temp;Humidity;BMP_temperature;BMP_pressure;BME280_temperature;BME280_humidity;BME280_pressure;Samples;Min_cycle;Max_cycle;Signal;HPM_P1;HPM_P2
2022/01/28 00:00:41;;;;;;;19.42;4.07;;;4.90;99.90;;;;;;5085130;28;20044;-91
2022/01/28 00:03:09;;;;;;;18.65;2.90;;;4.90;99.90;;;;;;5092605;28;20052;-91
2022/01/28 00:05:36;;;;;;;14.73;2.30;;;4.90;99.90;;;;;;5077763;28;20549;-92
2022/01/28 00:08:03;;;;;;;17.67;3.13;;;4.90;99.90;;;;;;5091717;28;20393;-91
2022/01/28 00:10:30;;;;;;;13.38;2.78;;;4.90;99.90;;;;;;5081166;28;20046;-91
2022/01/28 00:13:19;;;;;;;19.85;2.40;;;4.90;99.90;;;;;;5076904;28;20063;-90
2022/01/28 00:16:14;;;;;;;17.38;2.95;;;4.90;99.90;;;;;;5077173;28;20050;-91
2022/01/28 00:40:15;;;;;;;17.25;3.08;;;4.80;99.90;;;;;;5111049;28;20097;-91
2022/01/28 00:42:41;;;;;;;25.52;2.85;;;4.80;99.90;;;;;;5081882;28;20047;-91
2022/01/28 00:45:07;;;;;;;23.88;3.50;;;4.80;99.90;;;;;;5076759;28;20049;-92
2022/01/28 00:47:32;;;;;;;25.58;3.00;;;4.80;99.90;;;;;;5087113;28;20100;-91
2022/01/28 00:49:58;;;;;;;20.15;3.00;;;4.80;99.90;;;;;;5073741;28;20699;-91
2022/01/28 00:52:24;;;;;;;18.38;2.45;;;4.80;99.90;;;;;;5069955;28;20057;-90
2022/01/28 00:54:49;;;;;;;18.55;3.30;;;4.70;99.90;;;;;;5077310;28;20067;-91
2022/01/28 00:57:15;;;;;;;20.52;2.53;;;4.70;99.90;;;;;;5076745;28;20069;-91
2022/01/28 00:59:40;;;;;;;22.17;4.22;;;4.60;99.90;;;;;;5076068;28;20083;-92
2022/01/28 01:02:06;;;;;;;23.55;3.60;;;4.60;99.90;;;;;;5093415;28;20089;-92
2022/01/28 01:04:31;;;;;;;16.92;3.08;;;4.60;99.90;;;;;;5087622;28;20043;-92
2022/01/28 01:06:57;;;;;;;23.33;3.47;;;4.60;99.90;;;;;;5080981;28;20398;-92
2022/01/28 01:09:22;;;;;;;26.33;4.32;;;4.50;99.90;;;;;;5084821;28;20103;-91
2022/01/28 01:11:48;;;;;;;28.88;5.20;;;4.50;99.90;;;;;;5076332;28;20046;-92
2022/01/28 01:14:14;;;;;;;18.85;3.85;;;4.50;99.90;;;;;;5082685;28;20039;-91
2022/01/28 01:19:27;;;;;;;26.83;3.78;;;4.50;99.90;;;;;;5105788;28;20138;-92
2022/01/28 01:21:57;;;;;;;25.95;4.05;;;4.60;99.90;;;;;;5093103;28;20863;-92
2022/01/28 01:24:25;;;;;;;29.10;4.68;;;4.50;99.90;;;;;;5076421;28;20051;-93
2022/01/28 01:26:51;;;;;;;30.88;4.15;;;4.50;99.90;;;;;;5075931;28;20401;-91
2022/01/28 01:29:19;;;;;;;24.55;3.53;;;4.60;99.90;;;;;;5076537;28;20043;-91
2022/01/28 01:31:46;;;;;;;24.75;4.07;;;4.50;99.90;;;;;;5075837;28;20097;-92
2022/01/28 01:34:21;;;;;;;17.08;3.50;;;4.60;99.90;;;;;;5076197;28;20032;-91
2022/01/28 01:36:47;;;;;;;22.88;3.40;;;4.60;99.90;;;;;;5075573;28;20553;-91
2022/01/28 01:39:23;;;;;;;27.08;4.43;;;4.60;99.90;;;;;;5075883;28;20044;-90
2022/01/28 01:41:56;;;;;;;22.85;3.30;;;4.70;99.90;;;;;;5090499;28;20061;-91
2022/01/28 01:52:41;;;;;;;27.70;4.18;;;4.70;99.90;;;;;;5089165;28;20135;-90
2022/01/28 01:55:07;;;;;;;24.42;3.33;;;4.70;99.90;;;;;;5086612;28;20544;-90
2022/01/28 01:57:34;;;;;;;22.95;3.50;;;4.60;99.90;;;;;;5078953;28;20066;-90
2022/01/28 02:00:00;;;;;;;16.83;3.03;;;4.60;99.90;;;;;;5081882;28;20560;-90
2022/01/28 02:02:26;;;;;;;14.43;3.05;;;4.70;99.90;;;;;;5092120;28;20469;-91
2022/01/28 02:04:51;;;;;;;21.40;3.50;;;4.60;99.90;;;;;;5092745;28;20083;-91
2022/01/28 02:07:18;;;;;;;19.70;2.65;;;4.60;99.90;;;;;;5067225;28;20072;-92
2022/01/28 02:09:43;;;;;;;20.92;2.67;;;4.60;99.90;;;;;;5055481;28;20039;-90
2022/01/28 02:12:09;;;;;;;15.93;2.90;;;4.70;99.90;;;;;;5054929;28;20070;-91
2022/01/28 02:14:35;;;;;;;26.50;3.83;;;4.70;99.90;;;;;;5060063;28;20036;-91
2022/01/28 02:17:02;;;;;;;18.50;2.95;;;4.70;99.90;;;;;;5076425;28;20039;-92
2022/01/28 02:19:28;;;;;;;19.75;3.05;;;4.60;99.90;;;;;;5092318;28;20062;-91
2022/01/28 02:21:54;;;;;;;26.77;4.43;;;4.60;99.90;;;;;;5074884;28;20481;-91
2022/01/28 02:24:33;;;;;;;18.75;2.75;;;4.70;99.90;;;;;;5091356;28;20054;-91
2022/01/28 02:26:58;;;;;;;16.58;4.07;;;4.70;99.90;;;;;;5092332;28;20084;-90
2022/01/28 02:29:29;;;;;;;21.90;4.05;;;4.70;99.90;;;;;;5092074;28;20126;-91
2022/01/28 02:31:57;;;;;;;31.23;4.05;;;4.70;99.90;;;;;;5091821;28;20173;-91
2022/01/28 02:34:22;;;;;;;28.30;4.75;;;4.70;99.90;;;;;;5079382;28;20048;-92
2022/01/28 02:36:48;;;;;;;29.42;4.78;;;4.80;99.90;;;;;;5071783;28;20453;-91
2022/01/28 02:39:14;;;;;;;24.80;4.22;;;4.90;99.90;;;;;;5062629;28;20119;-92
2022/01/28 02:41:44;;;;;;;26.05;3.40;;;4.90;99.90;;;;;;5092957;28;20093;-92
2022/01/28 02:44:19;;;;;;;28.02;3.75;;;5.00;99.90;;;;;;5091742;28;20028;-91
2022/01/28 02:46:58;;;;;;;22.10;3.00;;;4.90;99.90;;;;;;5074930;28;20054;-91
2022/01/28 02:49:27;;;;;;;27.02;4.53;;;4.80;99.90;;;;;;5100541;28;20062;-91
2022/01/28 02:51:54;;;;;;;25.25;3.55;;;4.80;99.90;;;;;;5055011;28;20044;-92
2022/01/28 02:54:19;;;;;;;26.98;4.82;;;4.70;99.90;;;;;;5072314;28;20127;-91
2022/01/28 02:57:00;;;;;;;19.98;3.00;;;4.70;99.90;;;;;;5074061;28;20131;-93
2022/01/28 02:59:26;;;;;;;28.20;4.00;;;4.60;99.90;;;;;;5079297;28;20196;-92
2022/01/28 03:01:51;;;;;;;18.27;3.50;;;4.60;99.90;;;;;;5091587;28;20548;-92
2022/01/28 03:05:02;;;;;;;24.25;3.95;;;4.50;99.90;;;;;;5091407;28;20047;-91
2022/01/28 03:07:05;;;;;;;27.20;3.90;;;4.40;99.90;;;;;;5095367;28;20040;-91
2022/01/28 03:09:48;;;;;;;22.95;3.33;;;4.40;99.90;;;;;;5076314;28;20047;-91
2022/01/28 03:12:17;;;;;;;24.33;4.15;;;4.30;99.90;;;;;;5100650;28;20051;-92
2022/01/28 03:15:00;;;;;;;20.38;3.38;;;4.20;99.90;;;;;;5075947;28;20476;-91
2022/01/28 03:20:36;;;;;;;25.55;4.43;;;4.10;99.90;;;;;;5094814;28;20054;-92
2022/01/28 03:22:51;;;;;;;19.58;4.18;;;4.20;99.90;;;;;;5094431;28;20079;-92
2022/01/28 03:25:17;;;;;;;23.52;3.75;;;4.20;99.90;;;;;;5095445;28;20136;-93
2022/01/28 03:27:57;;;;;;;31.45;3.58;;;4.20;99.90;;;;;;5094912;28;20043;-91
2022/01/28 03:30:23;;;;;;;23.73;4.07;;;4.30;99.90;;;;;;5094743;28;20048;-91
2022/01/28 03:32:49;;;;;;;32.42;3.65;;;4.30;99.90;;;;;;5078406;28;20400;-92
2022/01/28 03:35:16;;;;;;;24.55;3.53;;;4.30;99.90;;;;;;5095536;28;20038;-92
2022/01/28 03:37:42;;;;;;;26.08;3.55;;;4.30;99.90;;;;;;5091208;28;20131;-90
2022/01/28 03:40:09;;;;;;;28.77;4.95;;;4.30;99.90;;;;;;5070254;28;20075;-91
2022/01/28 03:42:35;;;;;;;21.63;3.70;;;4.30;99.90;;;;;;5057254;28;20055;-91
2022/01/28 03:45:01;;;;;;;26.17;3.45;;;4.30;99.90;;;;;;5070436;28;20035;-92
2022/01/28 03:47:26;;;;;;;26.17;4.00;;;4.30;99.90;;;;;;5098546;27;20612;-92
2022/01/28 03:49:52;;;;;;;23.58;3.38;;;4.30;99.90;;;;;;5086136;28;20146;-91
2022/01/28 03:52:18;;;;;;;21.70;3.33;;;4.20;99.90;;;;;;5077907;28;20067;-92
2022/01/28 03:54:43;;;;;;;29.73;4.13;;;4.20;99.90;;;;;;5077631;28;20093;-91
2022/01/28 03:57:09;;;;;;;25.80;3.92;;;4.30;99.90;;;;;;5077995;28;20556;-91
2022/01/28 03:59:35;;;;;;;26.58;4.45;;;4.20;99.90;;;;;;5076978;28;20039;-91
2022/01/28 04:02:02;;;;;;;24.05;3.72;;;4.10;99.90;;;;;;5078429;28;20123;-92
2022/01/28 04:12:29;;;;;;;22.92;4.65;;;4.10;99.90;;;;;;5094755;28;20104;-91
2022/01/28 04:17:32;;;;;;;31.35;4.00;;;4.10;99.90;;;;;;5098245;28;20054;-91
2022/01/28 04:19:58;;;;;;;28.30;4.22;;;4.10;99.90;;;;;;5077396;28;20390;-91
2022/01/28 04:22:25;;;;;;;33.28;4.60;;;4.10;99.90;;;;;;5100957;28;20097;-91
2022/01/28 04:24:50;;;;;;;33.70;5.00;;;4.10;99.90;;;;;;5082948;28;20104;-91
2022/01/28 04:27:16;;;;;;;29.05;5.35;;;4.10;99.90;;;;;;5077403;28;20036;-91
2022/01/28 04:29:42;;;;;;;32.47;4.28;;;4.10;99.90;;;;;;5083857;28;20050;-91
2022/01/28 04:32:08;;;;;;;40.42;4.72;;;4.20;99.90;;;;;;5094313;28;20050;-91
2022/01/28 04:34:34;;;;;;;29.08;3.65;;;4.20;99.90;;;;;;5085096;28;20405;-91
2022/01/28 04:43:03;;;;;;;32.60;5.20;;;4.20;99.90;;;;;;5012411;28;20488;-91
2022/01/28 04:45:39;;;;;;;31.65;5.07;;;4.30;99.90;;;;;;4996840;28;20061;-91
2022/01/28 04:50:54;;;;;;;38.33;5.55;;;4.40;99.90;;;;;;5012210;28;20540;-91
2022/01/28 04:53:41;;;;;;;35.90;5.32;;;4.40;99.90;;;;;;5029747;28;20045;-91
2022/01/28 04:56:31;;;;;;;34.90;4.70;;;4.30;99.90;;;;;;5029500;28;20041;-91
2022/01/28 05:01:48;;;;;;;34.17;5.00;;;4.40;99.90;;;;;;5012680;28;20145;-93
2022/01/28 05:04:53;;;;;;;32.20;5.60;;;4.30;99.90;;;;;;5012603;28;20049;-90
2022/01/28 05:10:22;;;;;;;33.35;4.68;;;4.30;99.90;;;;;;5012527;28;20584;-91
2022/01/28 05:15:42;;;;;;;35.28;5.22;;;4.40;99.90;;;;;;5028810;28;20042;-91
2022/01/28 05:23:22;;;;;;;31.77;4.25;;;4.40;99.90;;;;;;5091346;28;20440;-91
2022/01/28 05:26:41;;;;;;;33.63;5.18;;;4.30;99.90;;;;;;5093402;28;20083;-92
2022/01/28 05:29:07;;;;;;;32.75;4.85;;;4.40;99.90;;;;;;5076609;28;20031;-92
2022/01/28 05:31:33;;;;;;;20.92;4.03;;;4.40;99.90;;;;;;5089769;28;20050;-91
2022/01/28 05:33:58;;;;;;;34.95;4.50;;;4.40;99.90;;;;;;5082593;28;20093;-91
2022/01/28 05:36:24;;;;;;;32.80;5.28;;;4.40;99.90;;;;;;5077772;28;20064;-91
2022/01/28 05:38:50;;;;;;;35.60;5.10;;;4.40;99.90;;;;;;5075448;28;20028;-92
2022/01/28 05:41:15;;;;;;;33.22;4.80;;;4.30;99.90;;;;;;5090833;28;20046;-92
2022/01/28 05:43:41;;;;;;;23.98;4.07;;;4.30;99.90;;;;;;5082749;28;20553;-90
2022/01/28 05:46:08;;;;;;;31.65;5.30;;;4.40;99.90;;;;;;5075889;28;20052;-91
2022/01/28 05:48:33;;;;;;;27.10;5.03;;;4.40;99.90;;;;;;5065203;28;20041;-90
2022/01/28 05:50:59;;;;;;;33.78;5.13;;;4.30;99.90;;;;;;5070289;28;20043;-92
2022/01/28 05:53:24;;;;;;;41.70;6.22;;;4.30;99.90;;;;;;5063010;28;20056;-91
2022/01/28 05:55:50;;;;;;;43.35;6.15;;;4.30;99.90;;;;;;5044941;28;20595;-92
2022/01/28 05:58:15;;;;;;;42.45;6.75;;;4.30;99.90;;;;;;5050429;28;20029;-92
2022/01/28 06:00:41;;;;;;;40.08;5.10;;;4.40;99.90;;;;;;5041627;28;20064;-93
2022/01/28 06:03:07;;;;;;;35.80;5.57;;;4.40;99.90;;;;;;5040133;28;20039;-93
2022/01/28 06:05:33;;;;;;;37.55;5.38;;;4.50;99.90;;;;;;5041871;28;20040;-93
2022/01/28 06:07:59;;;;;;;27.50;5.45;;;4.50;99.90;;;;;;5034700;28;20374;-93
2022/01/28 06:10:25;;;;;;;33.60;4.72;;;4.50;99.90;;;;;;5047558;28;20051;-93
2022/01/28 06:12:51;;;;;;;33.13;5.20;;;4.50;99.90;;;;;;5053784;28;20083;-94
2022/01/28 06:15:17;;;;;;;39.80;5.95;;;4.50;99.90;;;;;;5036236;28;20037;-93
2022/01/28 06:17:43;;;;;;;31.02;5.10;;;4.50;99.90;;;;;;5047359;28;20106;-93
2022/01/28 06:20:12;;;;;;;41.78;5.18;;;4.50;99.90;;;;;;5047521;28;20033;-93
2022/01/28 06:22:38;;;;;;;32.28;5.60;;;4.50;99.90;;;;;;5065014;28;20047;-93
2022/01/28 06:25:04;;;;;;;35.33;5.55;;;4.50;99.90;;;;;;5042604;28;20640;-94
2022/01/28 06:27:30;;;;;;;41.13;5.43;;;4.50;99.90;;;;;;5054631;28;20048;-94
2022/01/28 06:29:56;;;;;;;42.33;5.65;;;4.50;99.90;;;;;;5043341;28;20059;-95
2022/01/28 06:32:21;;;;;;;31.25;5.38;;;4.40;99.90;;;;;;5040769;28;20079;-94
2022/01/28 06:34:47;;;;;;;34.75;4.57;;;4.50;99.90;;;;;;5041732;28;20071;-94
2022/01/28 06:37:12;;;;;;;26.13;4.22;;;4.50;99.90;;;;;;5043792;28;20044;-94
2022/01/28 06:39:38;;;;;;;32.38;5.07;;;4.60;99.90;;;;;;5058939;28;20508;-94
2022/01/28 06:42:04;;;;;;;32.60;5.63;;;4.60;99.90;;;;;;5060837;28;20056;-93
2022/01/28 06:44:31;;;;;;;29.00;4.70;;;4.60;99.90;;;;;;5045675;28;20048;-91
2022/01/28 06:46:57;;;;;;;40.40;6.18;;;4.60;99.90;;;;;;5034106;28;20448;-93
2022/01/28 06:49:23;;;;;;;31.25;4.57;;;4.60;99.90;;;;;;5056823;28;20126;-94
2022/01/28 06:51:48;;;;;;;25.67;4.88;;;4.60;99.90;;;;;;5061263;28;20071;-93
2022/01/28 06:54:14;;;;;;;34.13;5.85;;;4.50;99.90;;;;;;5069683;28;20036;-93
2022/01/28 06:56:40;;;;;;;24.08;5.55;;;4.50;99.90;;;;;;5073911;28;20051;-93
2022/01/28 06:59:05;;;;;;;32.15;5.22;;;4.50;99.90;;;;;;5069109;28;20048;-94
2022/01/28 07:01:31;;;;;;;31.75;5.15;;;4.50;99.90;;;;;;5063805;28;20044;-94
2022/01/28 07:03:56;;;;;;;24.42;5.00;;;4.50;99.90;;;;;;5066136;28;20486;-93
2022/01/28 07:06:23;;;;;;;38.97;5.35;;;4.50;99.90;;;;;;5077947;28;20106;-93
2022/01/28 07:08:49;;;;;;;29.67;5.10;;;4.50;99.90;;;;;;5070483;28;20036;-93
2022/01/28 07:11:14;;;;;;;30.50;5.07;;;4.50;99.90;;;;;;5065185;28;20414;-93
2022/01/28 07:13:40;;;;;;;30.27;5.10;;;4.60;99.90;;;;;;5065992;28;20052;-93
2022/01/28 07:16:06;;;;;;;37.22;5.60;;;4.50;99.90;;;;;;5072561;28;20044;-93
2022/01/28 07:18:32;;;;;;;34.03;5.40;;;4.50;99.90;;;;;;5065185;28;20485;-93
2022/01/28 07:20:57;;;;;;;29.63;5.00;;;4.40;99.90;;;;;;5059649;28;20489;-92
2022/01/28 07:23:23;;;;;;;26.90;5.22;;;4.50;99.90;;;;;;5066322;28;20076;-93
2022/01/28 07:25:48;;;;;;;33.05;4.60;;;4.50;99.90;;;;;;5066575;28;20122;-92
2022/01/28 07:28:14;;;;;;;29.83;5.03;;;4.50;99.90;;;;;;5069569;28;20097;-92
2022/01/28 07:30:40;;;;;;;39.58;5.13;;;4.60;99.90;;;;;;5074922;28;20047;-92
2022/01/28 07:33:07;;;;;;;25.88;4.60;;;4.50;99.90;;;;;;5066059;28;20041;-93
2022/01/28 07:35:34;;;;;;;31.88;4.63;;;4.40;99.90;;;;;;5060848;28;20044;-91
2022/01/28 07:38:00;;;;;;;41.13;5.13;;;4.30;99.90;;;;;;5064415;28;20036;-94
2022/01/28 07:40:26;;;;;;;40.20;5.80;;;4.30;99.90;;;;;;5087521;28;20087;-93
2022/01/28 07:42:51;;;;;;;32.90;4.88;;;4.20;99.90;;;;;;5068129;28;20151;-93
2022/01/28 07:45:17;;;;;;;31.23;5.10;;;4.30;99.90;;;;;;5061518;28;20150;-92
2022/01/28 07:47:44;;;;;;;33.95;5.70;;;4.30;99.90;;;;;;5062082;28;20044;-93
2022/01/28 07:50:11;;;;;;;45.80;16.35;;;4.30;99.90;;;;;;5061241;28;20079;-92
2022/01/28 07:52:38;;;;;;;73.75;12.88;;;4.20;99.90;;;;;;5071041;28;20546;-92
2022/01/28 07:55:05;;;;;;;34.13;7.75;;;4.20;99.90;;;;;;5077632;28;20031;-92
2022/01/28 07:57:31;;;;;;;35.97;5.93;;;4.20;99.90;;;;;;5091743;28;20521;-91
2022/01/28 07:59:57;;;;;;;32.05;6.72;;;4.20;99.90;;;;;;5081902;28;20024;-92
2022/01/28 08:02:22;;;;;;;33.63;8.95;;;4.20;99.90;;;;;;5093497;28;20071;-91
2022/01/28 08:04:48;;;;;;;38.88;10.13;;;4.20;99.90;;;;;;5083428;28;20093;-91
2022/01/28 08:07:14;;;;;;;34.45;6.43;;;4.20;99.90;;;;;;5073869;28;20104;-91
2022/01/28 08:09:39;;;;;;;38.95;6.13;;;4.10;99.90;;;;;;5073333;28;20044;-90
2022/01/28 08:12:06;;;;;;;33.53;12.07;;;4.10;99.90;;;;;;5091356;28;20040;-91
2022/01/28 08:14:31;;;;;;;40.17;14.27;;;4.20;99.90;;;;;;5073782;28;20041;-91
2022/01/28 08:16:58;;;;;;;36.90;10.45;;;4.10;99.90;;;;;;5073963;28;20048;-91
2022/01/28 08:19:23;;;;;;;34.45;7.68;;;4.10;99.90;;;;;;5074173;28;20084;-90
2022/01/28 08:21:49;;;;;;;36.53;7.80;;;4.10;99.90;;;;;;5073312;28;20044;-91
2022/01/28 08:24:14;;;;;;;34.63;6.00;;;4.10;99.90;;;;;;5066782;28;20033;-92
2022/01/28 08:26:40;;;;;;;39.10;8.73;;;4.10;99.90;;;;;;5078321;28;20051;-92
2022/01/28 08:29:06;;;;;;;68.80;29.05;;;4.10;99.90;;;;;;5053993;28;20040;-92
2022/01/28 08:31:33;;;;;;;28.73;6.68;;;4.10;99.90;;;;;;5073390;28;20086;-92
2022/01/28 08:33:59;;;;;;;38.90;11.85;;;4.00;99.90;;;;;;5091177;28;20044;-91
2022/01/28 08:36:25;;;;;;;34.10;7.60;;;4.00;99.90;;;;;;5069982;28;20098;-91
2022/01/28 08:38:54;;;;;;;27.75;5.93;;;4.00;99.90;;;;;;5063902;28;20079;-92
2022/01/28 08:41:19;;;;;;;32.20;5.20;;;4.00;99.90;;;;;;5057014;28;20227;-91
2022/01/28 08:43:45;;;;;;;40.38;5.97;;;4.00;99.90;;;;;;5069932;28;20135;-92
2022/01/28 08:46:11;;;;;;;34.78;5.78;;;4.10;99.90;;;;;;5066005;28;20045;-92
2022/01/28 08:48:37;;;;;;;25.92;5.25;;;4.20;99.90;;;;;;5073517;28;20056;-91
2022/01/28 08:51:03;;;;;;;38.20;5.80;;;4.20;99.90;;;;;;5090239;28;20048;-91
2022/01/28 08:53:29;;;;;;;27.75;5.57;;;4.40;99.90;;;;;;5090500;28;20040;-91
2022/01/28 08:55:54;;;;;;;41.72;6.20;;;4.50;99.90;;;;;;5090044;28;20412;-91
2022/01/28 08:58:20;;;;;;;31.13;5.53;;;4.60;99.90;;;;;;5069851;28;20131;-92
2022/01/28 09:00:48;;;;;;;29.73;5.20;;;4.70;99.90;;;;;;5088782;28;20040;-92
2022/01/28 09:03:18;;;;;;;36.05;5.88;;;4.80;99.90;;;;;;5090197;28;20032;-91
2022/01/28 09:05:44;;;;;;;37.70;12.85;;;4.80;99.90;;;;;;5073417;28;20054;-91
2022/01/28 09:08:10;;;;;;;33.97;7.25;;;4.80;99.90;;;;;;5073492;28;20040;-91
2022/01/28 09:10:41;;;;;;;39.90;8.43;;;4.80;99.90;;;;;;5066313;28;20507;-91
2022/01/28 09:15:34;;;;;;;26.27;6.38;;;5.10;99.90;;;;;;5089355;28;20044;-91
2022/01/28 09:18:00;;;;;;;40.58;16.25;;;5.20;99.90;;;;;;5087751;28;20040;-91
2022/01/28 09:20:26;;;;;;;29.48;7.65;;;5.30;99.90;;;;;;5071849;28;20042;-91
2022/01/28 09:22:51;;;;;;;34.85;9.63;;;5.40;99.90;;;;;;5089831;28;20043;-91
2022/01/28 09:25:17;;;;;;;35.35;10.48;;;5.60;99.90;;;;;;5089482;28;20036;-91
2022/01/28 09:27:43;;;;;;;23.50;6.43;;;5.60;99.90;;;;;;5072663;28;20079;-91
2022/01/28 09:30:09;;;;;;;29.77;6.38;;;5.70;99.90;;;;;;5059763;28;20123;-92
2022/01/28 09:32:34;;;;;;;32.92;8.52;;;5.80;99.90;;;;;;5069380;28;20552;-91
2022/01/28 09:35:01;;;;;;;39.38;6.75;;;5.80;99.90;;;;;;5071891;28;20044;-90
2022/01/28 09:37:27;;;;;;;35.15;7.85;;;5.90;99.90;;;;;;5089778;28;20044;-91
2022/01/28 09:39:53;;;;;;;36.92;7.18;;;6.00;99.90;;;;;;5089125;28;20046;-92
2022/01/28 09:42:21;;;;;;;34.75;5.60;;;6.00;99.90;;;;;;5072791;28;20097;-91
2022/01/28 09:44:47;;;;;;;29.65;6.78;;;6.10;99.90;;;;;;5089164;28;20050;-92
2022/01/28 09:47:13;;;;;;;29.02;6.45;;;6.20;99.90;;;;;;5074579;28;20036;-92
2022/01/28 09:49:40;;;;;;;28.85;5.82;;;6.20;99.90;;;;;;5073104;28;20050;-91
2022/01/28 09:52:08;;;;;;;31.50;6.30;;;6.20;99.90;;;;;;5055958;28;20040;-92
2022/01/28 09:54:35;;;;;;;35.13;7.15;;;6.10;99.90;;;;;;5077754;28;20043;-90
2022/01/28 09:57:02;;;;;;;31.83;6.00;;;6.10;99.90;;;;;;5093291;28;20065;-91
2022/01/28 09:59:28;;;;;;;28.38;6.55;;;6.10;99.90;;;;;;5073727;28;20068;-91
2022/01/28 10:01:55;;;;;;;39.58;5.55;;;6.10;99.90;;;;;;5055806;28;20094;-91
2022/01/28 10:04:21;;;;;;;34.80;7.60;;;6.10;99.90;;;;;;5071942;28;20055;-91
2022/01/28 10:06:47;;;;;;;36.17;5.78;;;6.10;99.90;;;;;;5055289;28;20085;-90
2022/01/28 10:09:16;;;;;;;28.88;6.63;;;6.20;99.90;;;;;;5070748;28;20040;-91
2022/01/28 10:11:45;;;;;;;34.35;6.40;;;6.20;99.90;;;;;;5088539;28;20051;-91
2022/01/28 10:14:14;;;;;;;25.75;6.85;;;6.30;99.90;;;;;;5070845;28;20035;-92
2022/01/28 10:16:40;;;;;;;31.55;5.93;;;6.40;99.90;;;;;;5075271;28;20180;-91
2022/01/28 10:19:07;;;;;;;27.90;5.63;;;6.30;99.90;;;;;;5085331;28;20524;-92
2022/01/28 10:21:44;;;;;;;29.13;5.47;;;6.40;99.90;;;;;;5075398;28;20043;-91
2022/01/28 10:24:15;;;;;;;36.22;6.38;;;6.40;99.90;;;;;;5075573;28;20422;-90
2022/01/28 10:26:51;;;;;;;30.00;5.30;;;6.40;99.90;;;;;;5091984;28;20043;-91
2022/01/28 10:29:26;;;;;;;31.42;8.32;;;6.40;99.90;;;;;;5072899;28;20047;-91
2022/01/28 10:32:13;;;;;;;36.20;8.20;;;6.40;99.90;;;;;;5075168;28;20044;-90
2022/01/28 10:34:49;;;;;;;62.17;23.33;;;6.50;99.90;;;;;;5074629;28;20041;-91
2022/01/28 10:37:19;;;;;;;38.78;10.40;;;6.60;99.90;;;;;;5071400;28;20127;-92
2022/01/28 10:39:47;;;;;;;33.03;6.38;;;6.60;99.90;;;;;;5091478;28;20043;-92
2022/01/28 10:42:16;;;;;;;321.13;127.55;;;6.60;99.90;;;;;;5074692;28;20050;-93
2022/01/28 10:45:17;;;;;;;334.67;116.60;;;6.60;99.90;;;;;;5074833;28;20304;-92
2022/01/28 10:47:44;;;;;;;89.78;27.35;;;6.70;99.90;;;;;;5068604;28;20781;-91
2022/01/28 10:50:36;;;;;;;170.38;64.07;;;6.70;99.90;;;;;;5108759;28;20143;-91
2022/01/28 10:53:14;;;;;;;99.97;34.10;;;6.80;99.90;;;;;;5076647;28;20040;-92
2022/01/28 10:55:57;;;;;;;92.63;37.75;;;6.90;99.90;;;;;;5078546;28;20122;-92
2022/01/28 10:58:25;;;;;;;91.25;37.63;;;6.90;99.90;;;;;;5075677;28;20047;-92
2022/01/28 11:00:58;;;;;;;83.38;27.30;;;7.00;99.90;;;;;;5078799;28;20114;-91
2022/01/28 11:03:28;;;;;;;51.03;16.27;;;7.00;99.90;;;;;;5075454;28;20047;-92
2022/01/28 11:06:02;;;;;;;65.10;28.63;;;7.10;99.90;;;;;;5074781;28;20277;-93
2022/01/28 11:08:32;;;;;;;35.90;10.20;;;7.10;99.90;;;;;;5086365;28;20128;-91
2022/01/28 11:10:59;;;;;;;130.93;84.68;;;7.10;99.90;;;;;;5067128;28;20068;-93
2022/01/28 11:13:25;;;;;;;50.00;21.40;;;7.10;99.90;;;;;;5065887;28;20528;-91
2022/01/28 11:15:50;;;;;;;92.40;43.13;;;7.10;99.90;;;;;;5080882;28;20043;-92
2022/01/28 11:18:17;;;;;;;273.63;167.57;;;7.10;99.90;;;;;;5078361;28;20049;-92
2022/01/28 11:20:54;;;;;;;40.22;6.80;;;7.20;99.90;;;;;;5069320;28;20047;-92
2022/01/28 11:24:01;;;;;;;31.60;10.00;;;7.10;99.90;;;;;;5082633;28;20114;-91
2022/01/28 11:26:43;;;;;;;45.90;17.38;;;7.20;99.90;;;;;;5079496;28;20515;-92
2022/01/28 11:29:13;;;;;;;39.22;9.60;;;7.20;99.90;;;;;;5070924;28;20526;-91
2022/01/28 11:31:48;;;;;;;40.05;13.13;;;7.20;99.90;;;;;;5082697;28;20047;-92
2022/01/28 11:34:18;;;;;;;38.65;6.65;;;7.20;99.90;;;;;;5105854;28;20917;-92
2022/01/28 11:36:44;;;;;;;41.50;14.75;;;7.20;99.90;;;;;;5093779;28;20052;-92
2022/01/28 11:39:35;;;;;;;41.10;12.50;;;7.30;99.90;;;;;;5067767;28;20032;-93
2022/01/28 11:42:10;;;;;;;47.65;18.88;;;7.40;99.90;;;;;;5069702;28;20036;-92
2022/01/28 11:44:50;;;;;;;32.55;4.88;;;7.50;99.90;;;;;;5063386;28;20549;-93
2022/01/28 11:47:40;;;;;;;28.00;8.43;;;7.40;99.90;;;;;;5074439;28;20079;-93
2022/01/28 11:50:13;;;;;;;49.30;8.18;;;7.50;99.90;;;;;;5080841;28;20044;-93
2022/01/28 11:52:47;;;;;;;40.28;7.05;;;7.40;99.90;;;;;;5074672;28;20490;-93
2022/01/28 11:55:16;;;;;;;32.35;9.68;;;7.40;99.90;;;;;;5097210;28;20039;-92
2022/01/28 11:58:00;;;;;;;35.88;8.30;;;7.40;99.90;;;;;;5081352;28;20079;-92
2022/01/28 12:00:47;;;;;;;47.97;15.82;;;7.40;99.90;;;;;;5077630;28;20039;-93
2022/01/28 12:03:17;;;;;;;36.13;7.75;;;7.40;99.90;;;;;;5097943;28;20058;-94
2022/01/28 12:05:43;;;;;;;36.30;5.68;;;7.40;99.90;;;;;;5077218;28;20043;-94
2022/01/28 12:08:11;;;;;;;30.23;5.97;;;7.40;99.90;;;;;;5085299;28;20039;-93
2022/01/28 12:10:42;;;;;;;27.38;6.32;;;7.40;99.90;;;;;;5094584;28;20042;-92
2022/01/28 12:13:13;;;;;;;23.08;4.18;;;7.40;99.90;;;;;;5074256;28;20036;-92
2022/01/28 12:18:41;;;;;;;31.88;5.38;;;7.30;99.90;;;;;;5087176;28;20039;-92
2022/01/28 12:21:16;;;;;;;30.20;4.93;;;7.20;99.90;;;;;;5091305;28;20504;-92
2022/01/28 12:23:43;;;;;;;30.35;5.60;;;7.30;99.90;;;;;;5085616;28;20048;-93
2022/01/28 12:26:11;;;;;;;27.52;4.45;;;7.30;99.90;;;;;;5071035;28;20085;-93
2022/01/28 12:28:37;;;;;;;30.67;4.97;;;7.40;99.90;;;;;;5068106;28;20427;-94
2022/01/28 12:31:12;;;;;;;27.40;5.43;;;7.30;99.90;;;;;;5066323;28;20131;-94
2022/01/28 12:33:47;;;;;;;28.65;5.10;;;7.40;99.90;;;;;;5090396;28;20044;-93
2022/01/28 12:36:25;;;;;;;27.88;4.38;;;7.30;99.90;;;;;;5057639;28;20043;-93
2022/01/28 12:39:11;;;;;;;34.92;5.93;;;7.20;99.90;;;;;;5079618;28;20039;-91
2022/01/28 12:41:50;;;;;;;23.85;4.53;;;7.10;99.90;;;;;;5076182;28;20051;-92
2022/01/28 12:44:17;;;;;;;23.95;4.20;;;7.20;99.90;;;;;;5071741;28;20070;-92
2022/01/28 12:46:50;;;;;;;28.58;4.53;;;7.10;99.90;;;;;;5067214;28;20039;-91
2022/01/28 12:49:16;;;;;;;34.95;5.43;;;7.00;99.90;;;;;;5060253;28;20052;-91
2022/01/28 12:51:42;;;;;;;20.58;4.22;;;7.00;99.90;;;;;;5077181;28;20087;-93
2022/01/28 12:54:08;;;;;;;25.52;4.18;;;7.00;99.90;;;;;;5058146;28;20556;-92
2022/01/28 12:56:39;;;;;;;21.48;4.30;;;7.10;99.90;;;;;;5090383;28;20131;-90
2022/01/28 12:59:05;;;;;;;23.83;3.72;;;7.10;99.90;;;;;;5073882;28;20082;-91
2022/01/28 13:01:31;;;;;;;22.65;3.83;;;7.10;99.90;;;;;;5073271;28;20036;-93
2022/01/28 13:04:09;;;;;;;27.88;4.10;;;7.10;99.90;;;;;;5073007;28;20123;-92
2022/01/28 13:09:16;;;;;;;24.27;4.13;;;7.20;99.90;;;;;;5089834;28;20055;-91
2022/01/28 13:11:45;;;;;;;34.38;5.40;;;7.30;99.90;;;;;;5089664;28;20085;-90
2022/01/28 13:14:12;;;;;;;31.63;4.82;;;7.30;99.90;;;;;;5072048;28;20425;-89
2022/01/28 13:16:43;;;;;;;29.92;6.03;;;7.30;99.90;;;;;;5072724;28;20486;-88
2022/01/28 13:19:11;;;;;;;25.83;4.53;;;7.50;99.90;;;;;;5072566;28;20452;-89
2022/01/28 13:21:38;;;;;;;24.35;4.07;;;7.50;99.90;;;;;;5089607;28;20048;-89
2022/01/28 13:24:11;;;;;;;23.55;4.35;;;7.50;99.90;;;;;;5070587;28;20121;-88
2022/01/28 13:26:59;;;;;;;32.08;4.53;;;7.60;99.90;;;;;;5052393;28;20041;-88
2022/01/28 13:29:39;;;;;;;28.23;5.10;;;7.50;99.90;;;;;;5058075;28;20036;-90
2022/01/28 13:32:13;;;;;;;24.67;4.75;;;7.40;99.90;;;;;;5082387;28;20048;-89
2022/01/28 13:34:52;;;;;;;25.17;4.00;;;7.30;99.90;;;;;;5068912;28;20068;-88
2022/01/28 13:37:55;;;;;;;26.15;4.40;;;7.40;99.90;;;;;;5068582;28;20040;-88
2022/01/28 13:40:21;;;;;;;33.05;4.63;;;7.50;99.90;;;;;;5017311;28;20127;-88
2022/01/28 13:43:04;;;;;;;33.47;4.15;;;7.60;99.90;;;;;;5022527;28;20272;-87
2022/01/28 13:45:53;;;;;;;36.78;5.00;;;7.50;99.90;;;;;;5014094;28;20052;-89
2022/01/28 13:48:35;;;;;;;32.42;4.57;;;7.50;99.90;;;;;;5030271;28;20044;-89
2022/01/28 13:51:16;;;;;;;26.27;4.00;;;7.30;99.90;;;;;;5030848;28;20115;-89
2022/01/28 13:56:42;;;;;;;29.77;4.57;;;7.30;99.90;;;;;;5031099;28;20099;-88
2022/01/28 13:59:25;;;;;;;27.05;3.90;;;7.10;99.90;;;;;;5030819;28;20056;-89
2022/01/28 14:01:52;;;;;;;21.20;3.47;;;7.20;99.90;;;;;;5016166;28;20072;-89
2022/01/28 14:04:35;;;;;;;21.90;3.58;;;7.20;99.90;;;;;;5030377;28;20076;-89
2022/01/28 14:07:19;;;;;;;32.47;4.35;;;7.20;99.90;;;;;;5012950;28;20049;-88
2022/01/28 14:09:46;;;;;;;25.70;3.67;;;7.20;99.90;;;;;;5029539;28;20558;-89
2022/01/28 14:12:27;;;;;;;20.02;3.85;;;7.20;99.90;;;;;;5007310;28;20055;-90
2022/01/28 14:14:59;;;;;;;22.23;3.35;;;7.20;99.90;;;;;;5037233;28;20049;-89
2022/01/28 14:17:24;;;;;;;27.35;3.85;;;7.30;99.90;;;;;;5040818;28;20053;-89